createdAt,value
2023-05-06T00:00:18.855Z,13.31
2023-05-06T00:01:19.041Z,13.28
2023-05-06T00:02:19.267Z,13.25
2023-05-06T00:03:19.562Z,13.27
2023-05-06T00:04:19.630Z,13.23
2023-05-06T00:05:19.747Z,13.19
2023-05-06T00:06:19.952Z,13.23
2023-05-06T00:07:20.106Z,13.23
2023-05-06T00:08:20.270Z,13.20
2023-05-06T00:09:20.467Z,13.22
2023-05-06T00:10:20.618Z,13.20
2023-05-06T00:11:20.802Z,13.23
2023-05-06T00:12:20.983Z,13.19
2023-05-06T00:13:21.187Z,13.16
2023-05-06T00:14:21.316Z,13.15
2023-05-06T00:15:21.517Z,13.13
2023-05-06T00:16:21.698Z,13.13
2023-05-06T00:17:21.848Z,13.11
2023-05-06T00:18:21.998Z,13.09
2023-05-06T00:19:22.183Z,13.08
2023-05-06T00:20:22.357Z,13.09
2023-05-06T00:21:22.555Z,13.11
2023-05-06T00:22:22.740Z,13.05
2023-05-06T00:23:22.907Z,13.04
2023-05-06T00:24:23.066Z,13.04
2023-05-06T00:25:23.250Z,13.04
2023-05-06T00:26:23.457Z,13.03
2023-05-06T00:27:23.614Z,13.03
2023-05-06T00:28:23.781Z,13.05
2023-05-06T00:29:23.965Z,13.05
2023-05-06T00:30:24.120Z,13.05
2023-05-06T00:31:24.380Z,13.09
2023-05-06T00:32:24.509Z,13.08
2023-05-06T00:33:24.671Z,13.09
2023-05-06T00:34:24.853Z,13.08
2023-05-06T00:35:25.047Z,13.03
2023-05-06T00:36:25.156Z,13.03
2023-05-06T00:37:25.354Z,13.03
2023-05-06T00:38:25.506Z,13.01
2023-05-06T00:39:25.700Z,13.00
2023-05-06T00:40:25.873Z,12.95
2023-05-06T00:41:26.013Z,12.95
2023-05-06T00:42:26.184Z,12.95
2023-05-06T00:43:26.386Z,12.95
2023-05-06T00:44:26.530Z,12.94
2023-05-06T00:45:26.739Z,12.94
2023-05-06T00:46:26.996Z,12.94
2023-05-06T00:47:27.097Z,12.95
2023-05-06T00:48:27.244Z,12.93
2023-05-06T00:49:27.419Z,12.93
2023-05-06T00:50:27.610Z,12.93
2023-05-06T00:51:27.801Z,12.91
2023-05-06T00:52:27.984Z,12.90
2023-05-06T00:53:28.163Z,12.86
2023-05-06T00:54:28.357Z,12.87
2023-05-06T00:55:28.548Z,12.86
2023-05-06T00:56:28.701Z,12.86
2023-05-06T00:57:28.893Z,12.86
2023-05-06T00:58:29.100Z,12.87
2023-05-06T00:59:29.262Z,12.93
2023-05-06T01:00:29.418Z,12.94
2023-05-06T01:01:29.673Z,12.95
2023-05-06T01:02:43.292Z,12.95
2023-05-06T01:03:31.004Z,13.00
2023-05-06T01:04:30.231Z,13.01
2023-05-06T01:05:30.319Z,13.05
2023-05-06T01:06:30.478Z,13.04
2023-05-06T01:07:30.669Z,13.05
2023-05-06T01:08:30.827Z,13.05
2023-05-06T01:09:30.995Z,13.04
2023-05-06T01:10:31.144Z,13.05
2023-05-06T01:11:31.340Z,13.05
2023-05-06T01:12:31.513Z,13.05
2023-05-06T01:13:31.692Z,13.08
2023-05-06T01:14:31.851Z,13.05
2023-05-06T01:15:32.024Z,13.09
2023-05-06T01:16:32.301Z,13.09
2023-05-06T01:17:32.417Z,13.08
2023-05-06T01:18:32.628Z,13.08
2023-05-06T01:19:32.759Z,13.09
2023-05-06T01:20:32.906Z,13.09
2023-05-06T01:21:33.111Z,13.05
2023-05-06T01:22:33.273Z,13.03
2023-05-06T01:23:33.440Z,12.95
2023-05-06T01:24:33.608Z,12.97
2023-05-06T01:25:33.805Z,12.93
2023-05-06T01:26:33.944Z,12.90
2023-05-06T01:27:34.146Z,12.87
2023-05-06T01:28:34.285Z,12.83
2023-05-06T01:29:34.468Z,12.80
2023-05-06T01:30:34.635Z,12.79
2023-05-06T01:31:34.849Z,12.79
2023-05-06T01:32:35.028Z,12.76
2023-05-06T01:33:35.175Z,12.75
2023-05-06T01:34:35.358Z,12.73
2023-05-06T01:35:35.528Z,12.70
2023-05-06T01:36:35.723Z,12.64
2023-05-06T01:37:35.855Z,12.61
2023-05-06T01:38:35.996Z,12.57
2023-05-06T01:39:36.170Z,12.55
2023-05-06T01:40:36.351Z,12.50
2023-05-06T01:41:36.554Z,12.47
2023-05-06T01:42:36.736Z,12.47
2023-05-06T01:43:36.908Z,12.49
2023-05-06T01:44:37.081Z,12.46
2023-05-06T01:45:37.283Z,12.43
2023-05-06T01:46:37.490Z,12.45
2023-05-06T01:47:37.683Z,12.45
2023-05-06T01:48:37.803Z,12.47
2023-05-06T01:49:37.945Z,12.49
2023-05-06T01:50:38.131Z,12.45
2023-05-06T01:51:38.311Z,12.42
2023-05-06T01:52:38.484Z,12.42
2023-05-06T01:53:38.671Z,12.39
2023-05-06T01:54:38.837Z,12.40
2023-05-06T01:55:39.037Z,12.39
2023-05-06T01:56:39.211Z,12.40
2023-05-06T01:57:39.420Z,12.40
2023-05-06T01:58:39.567Z,12.40
2023-05-06T01:59:39.772Z,12.39
2023-05-06T02:00:39.949Z,12.36
2023-05-06T02:01:40.144Z,12.36
2023-05-06T02:02:40.425Z,12.37
2023-05-06T02:03:40.560Z,12.36
2023-05-06T02:04:40.639Z,12.36
2023-05-06T02:05:40.792Z,12.36
2023-05-06T02:06:40.974Z,12.37
2023-05-06T02:07:41.138Z,12.36
2023-05-06T02:08:41.348Z,12.37
2023-05-06T02:09:41.488Z,12.36
2023-05-06T02:10:41.644Z,12.35
2023-05-06T02:11:41.845Z,12.35
2023-05-06T02:12:42.038Z,12.32
2023-05-06T02:13:42.235Z,12.35
2023-05-06T02:14:42.365Z,12.32
2023-05-06T02:15:42.719Z,12.36
2023-05-06T02:16:42.691Z,12.35
2023-05-06T02:17:42.896Z,12.42
2023-05-06T02:18:43.048Z,12.43
2023-05-06T02:19:43.185Z,12.43
2023-05-06T02:20:43.363Z,12.39
2023-05-06T02:21:43.546Z,12.40
2023-05-06T02:22:43.749Z,12.43
2023-05-06T02:23:43.916Z,12.42
2023-05-06T02:24:44.069Z,12.40
2023-05-06T02:25:44.256Z,12.39
2023-05-06T02:26:44.432Z,12.43
2023-05-06T02:27:44.629Z,12.43
2023-05-06T02:28:44.806Z,12.46
2023-05-06T02:29:44.952Z,12.50
2023-05-06T02:30:45.130Z,12.50
2023-05-06T02:31:45.315Z,12.50
2023-05-06T02:32:45.483Z,12.49
2023-05-06T02:33:45.672Z,12.46
2023-05-06T02:34:45.827Z,12.45
2023-05-06T02:35:45.984Z,12.39
2023-05-06T02:36:46.186Z,12.37
2023-05-06T02:37:46.325Z,12.37
2023-05-06T02:38:46.497Z,12.35
2023-05-06T02:39:46.676Z,12.37
2023-05-06T02:40:46.883Z,12.36
2023-05-06T02:41:47.064Z,12.37
2023-05-06T02:42:47.262Z,12.35
2023-05-06T02:43:47.388Z,12.35
2023-05-06T02:44:47.576Z,12.32
2023-05-06T02:45:47.775Z,12.31
2023-05-06T02:46:47.936Z,12.32
2023-05-06T02:47:48.137Z,12.35
2023-05-06T02:48:48.278Z,12.35
2023-05-06T02:49:48.451Z,12.36
2023-05-06T02:50:48.629Z,12.35
2023-05-06T02:51:48.809Z,12.37
2023-05-06T02:52:48.998Z,12.36
2023-05-06T02:53:49.187Z,12.36
2023-05-06T02:54:49.355Z,12.36
2023-05-06T02:55:49.511Z,12.37
2023-05-06T02:56:49.704Z,12.39
2023-05-06T02:57:49.839Z,12.39
2023-05-06T02:58:50.007Z,12.42
2023-05-06T02:59:50.176Z,12.40
2023-05-06T03:00:50.388Z,12.42
2023-05-06T03:01:50.530Z,12.45
2023-05-06T03:02:50.722Z,12.45
2023-05-06T03:03:50.913Z,12.45
2023-05-06T03:04:51.079Z,12.46
2023-05-06T03:05:51.258Z,12.47
2023-05-06T03:06:51.384Z,12.49
2023-05-06T03:07:51.567Z,12.50
2023-05-06T03:08:51.724Z,12.54
2023-05-06T03:09:51.907Z,12.54
2023-05-06T03:10:52.085Z,12.55
2023-05-06T03:11:52.251Z,12.57
2023-05-06T03:12:52.432Z,12.60
2023-05-06T03:13:52.613Z,12.61
2023-05-06T03:14:52.780Z,12.61
2023-05-06T03:15:52.930Z,12.61
2023-05-06T03:16:53.245Z,12.61
2023-05-06T03:17:53.319Z,12.65
2023-05-06T03:18:53.454Z,12.65
2023-05-06T03:19:53.603Z,12.67
2023-05-06T03:20:53.768Z,12.67
2023-05-06T03:21:53.948Z,12.64
2023-05-06T03:22:54.093Z,12.64
2023-05-06T03:23:54.289Z,12.64
2023-05-06T03:24:54.474Z,12.65
2023-05-06T03:25:54.622Z,12.64
2023-05-06T03:26:54.807Z,12.62
2023-05-06T03:27:54.948Z,12.64
2023-05-06T03:28:55.132Z,12.65
2023-05-06T03:29:55.295Z,12.67
2023-05-06T03:30:55.481Z,12.67
2023-05-06T03:31:55.710Z,12.72
2023-05-06T03:32:55.873Z,12.72
2023-05-06T03:33:55.979Z,12.70
2023-05-06T03:34:56.147Z,12.72
2023-05-06T03:35:56.309Z,12.72
2023-05-06T03:36:56.475Z,12.72
2023-05-06T03:37:56.669Z,12.70
2023-05-06T03:38:56.814Z,12.72
2023-05-06T03:39:57.031Z,12.68
2023-05-06T03:40:57.151Z,12.67
2023-05-06T03:41:57.344Z,12.68
2023-05-06T03:42:57.513Z,12.68
2023-05-06T03:43:57.673Z,12.70
2023-05-06T03:44:57.842Z,12.70
2023-05-06T03:45:58.017Z,12.68
2023-05-06T03:46:58.208Z,12.72
2023-05-06T03:47:58.735Z,12.73
2023-05-06T03:48:58.563Z,12.76
2023-05-06T03:49:58.725Z,12.78
2023-05-06T03:50:58.906Z,12.76
2023-05-06T03:51:59.086Z,12.76
2023-05-06T03:52:59.250Z,12.76
2023-05-06T03:53:59.404Z,12.78
2023-05-06T03:54:59.600Z,12.80
2023-05-06T03:55:59.765Z,12.83
2023-05-06T03:56:59.966Z,12.83
2023-05-06T03:58:00.145Z,12.82
2023-05-06T03:59:00.326Z,12.82
2023-05-06T04:00:00.505Z,12.83
2023-05-06T04:01:00.696Z,12.83
2023-05-06T04:02:00.884Z,12.85
2023-05-06T04:03:01.145Z,12.85
2023-05-06T04:04:01.302Z,12.83
2023-05-06T04:05:01.431Z,12.83
2023-05-06T04:06:01.601Z,12.83
2023-05-06T04:07:01.738Z,12.85
2023-05-06T04:08:01.949Z,12.86
2023-05-06T04:09:02.085Z,12.87
2023-05-06T04:10:02.261Z,12.87
2023-05-06T04:11:02.437Z,12.87
2023-05-06T04:12:02.591Z,12.86
2023-05-06T04:13:02.838Z,12.85
2023-05-06T04:14:02.957Z,12.85
2023-05-06T04:15:03.167Z,12.83
2023-05-06T04:16:03.343Z,12.83
2023-05-06T04:17:03.506Z,12.80
2023-05-06T04:18:03.708Z,12.82
2023-05-06T04:19:06.239Z,12.80
2023-05-06T04:20:04.029Z,12.83
2023-05-06T04:21:04.208Z,12.85
2023-05-06T04:22:04.358Z,12.86
2023-05-06T04:23:04.517Z,12.86
2023-05-06T04:24:04.729Z,12.86
2023-05-06T04:25:04.886Z,12.86
2023-05-06T04:26:05.043Z,12.85
2023-05-06T04:27:05.228Z,12.86
2023-05-06T04:28:05.408Z,12.85
2023-05-06T04:29:05.609Z,12.86
2023-05-06T04:30:05.776Z,12.83
2023-05-06T04:31:05.953Z,12.82
2023-05-06T04:32:06.296Z,12.82
2023-05-06T04:33:06.291Z,12.82
2023-05-06T04:34:06.451Z,12.78
2023-05-06T04:35:06.600Z,12.83
2023-05-06T04:36:06.787Z,12.82
2023-05-06T04:37:07.006Z,12.82
2023-05-06T04:38:07.150Z,12.82
2023-05-06T04:39:07.326Z,12.83
2023-05-06T04:40:07.509Z,12.80
2023-05-06T04:41:07.655Z,12.82
2023-05-06T04:42:07.820Z,12.86
2023-05-06T04:43:08.021Z,12.87
2023-05-06T04:44:08.173Z,12.90
2023-05-06T04:45:08.502Z,12.91
2023-05-06T04:46:08.593Z,12.87
2023-05-06T04:47:08.691Z,12.93
2023-05-06T04:48:08.919Z,12.95
2023-05-06T04:49:10.370Z,12.95
2023-05-06T04:50:09.233Z,12.97
2023-05-06T04:51:09.426Z,12.98
2023-05-06T04:52:09.619Z,12.98
2023-05-06T04:53:09.818Z,12.98
2023-05-06T04:54:09.960Z,12.95
2023-05-06T04:55:10.258Z,12.93
2023-05-06T04:56:10.305Z,12.93
2023-05-06T04:57:10.514Z,12.94
2023-05-06T04:58:10.667Z,12.93
2023-05-06T04:59:10.848Z,12.93
2023-05-06T05:00:11.215Z,12.93
2023-05-06T05:01:11.225Z,12.90
2023-05-06T05:02:11.396Z,12.86
2023-05-06T05:03:11.728Z,12.85
2023-05-06T05:04:11.726Z,12.82
2023-05-06T05:05:12.169Z,12.82
2023-05-06T05:06:12.124Z,12.82
2023-05-06T05:07:12.287Z,12.79
2023-05-06T05:08:12.432Z,12.79
2023-05-06T05:09:12.625Z,12.79
2023-05-06T05:10:12.767Z,12.78
2023-05-06T05:11:12.993Z,12.78
2023-05-06T05:12:13.142Z,12.80
2023-05-06T05:13:13.347Z,12.82
2023-05-06T05:14:13.481Z,12.83
2023-05-06T05:15:13.661Z,12.80
2023-05-06T05:16:13.829Z,12.80
2023-05-06T05:17:14.046Z,12.80
2023-05-06T05:18:14.148Z,12.80
2023-05-06T05:19:14.321Z,12.83
2023-05-06T05:20:14.519Z,12.85
2023-05-06T05:21:14.651Z,12.82
2023-05-06T05:22:14.826Z,12.83
2023-05-06T05:23:14.997Z,12.82
2023-05-06T05:24:15.174Z,12.80
2023-05-06T05:25:15.385Z,12.80
2023-05-06T05:26:15.540Z,12.80
2023-05-06T05:27:15.729Z,12.82
2023-05-06T05:28:15.870Z,12.80
2023-05-06T05:29:16.068Z,12.82
2023-05-06T05:30:16.239Z,12.79
2023-05-06T05:31:16.464Z,12.78
2023-05-06T05:32:16.612Z,12.75
2023-05-06T05:33:16.876Z,12.73
2023-05-06T05:34:16.992Z,12.73
2023-05-06T05:35:17.141Z,12.73
2023-05-06T05:36:17.296Z,12.68
2023-05-06T05:37:17.492Z,12.67
2023-05-06T05:38:17.683Z,12.65
2023-05-06T05:39:17.875Z,12.62
2023-05-06T05:40:18.043Z,12.61
2023-05-06T05:41:18.206Z,12.64
2023-05-06T05:42:18.388Z,12.67
2023-05-06T05:43:18.582Z,12.67
2023-05-06T05:44:18.751Z,12.67
2023-05-06T05:45:18.919Z,12.67
2023-05-06T05:46:19.109Z,12.64
2023-05-06T05:47:19.245Z,12.67
2023-05-06T05:48:19.444Z,12.68
2023-05-06T05:49:19.601Z,12.72
2023-05-06T05:50:19.776Z,12.76
2023-05-06T05:51:19.946Z,12.75
2023-05-06T05:52:20.106Z,12.78
2023-05-06T05:53:20.310Z,12.79
2023-05-06T05:54:20.448Z,12.76
2023-05-06T05:55:20.610Z,12.78
2023-05-06T05:56:20.784Z,12.79
2023-05-06T05:57:21.009Z,12.80
2023-05-06T05:58:21.162Z,12.80
2023-05-06T05:59:21.310Z,12.82
2023-05-06T06:00:21.490Z,12.82
2023-05-06T06:01:21.672Z,12.78
2023-05-06T06:02:21.990Z,12.79
2023-05-06T06:03:22.109Z,12.76
2023-05-06T06:04:22.305Z,12.80
2023-05-06T06:05:22.362Z,12.80
2023-05-06T06:06:22.557Z,12.78
2023-05-06T06:07:22.781Z,12.75
2023-05-06T06:08:22.902Z,12.72
2023-05-06T06:09:23.076Z,12.73
2023-05-06T06:10:23.259Z,12.72
2023-05-06T06:11:23.433Z,12.68
2023-05-06T06:12:23.677Z,12.67
2023-05-06T06:13:25.306Z,12.62
2023-05-06T06:14:23.957Z,12.64
2023-05-06T06:15:24.127Z,12.64
2023-05-06T06:16:24.384Z,12.61
2023-05-06T06:17:24.560Z,12.61
2023-05-06T06:18:24.713Z,12.60
2023-05-06T06:19:24.853Z,12.58
2023-05-06T06:20:25.059Z,12.58
2023-05-06T06:21:25.180Z,12.58
2023-05-06T06:22:25.359Z,12.61
2023-05-06T06:23:25.532Z,12.61
2023-05-06T06:24:25.700Z,12.62
2023-05-06T06:25:25.910Z,12.65
2023-05-06T06:26:26.090Z,12.68
2023-05-06T06:27:26.257Z,12.72
2023-05-06T06:28:26.457Z,12.75
2023-05-06T06:29:26.634Z,12.76
2023-05-06T06:30:26.827Z,12.79
2023-05-06T06:31:27.001Z,12.83
2023-05-06T06:32:27.197Z,12.86
2023-05-06T06:33:27.315Z,12.85
2023-05-06T06:34:27.511Z,12.85
2023-05-06T06:35:27.668Z,12.87
2023-05-06T06:36:27.856Z,12.91
2023-05-06T06:37:28.068Z,12.94
2023-05-06T06:38:28.184Z,13.01
2023-05-06T06:39:28.358Z,13.04
2023-05-06T06:40:28.531Z,13.04
2023-05-06T06:41:28.703Z,13.08
2023-05-06T06:42:28.896Z,13.09
2023-05-06T06:43:29.058Z,13.11
2023-05-06T06:44:29.239Z,13.09
2023-05-06T06:45:29.392Z,13.13
2023-05-06T06:46:29.559Z,13.18
2023-05-06T06:47:29.791Z,13.19
2023-05-06T06:48:29.904Z,13.22
2023-05-06T06:49:30.071Z,13.20
2023-05-06T06:50:30.256Z,13.23
2023-05-06T06:51:30.418Z,13.23
2023-05-06T06:52:30.621Z,13.25
2023-05-06T06:53:30.779Z,13.28
2023-05-06T06:54:30.966Z,13.27
2023-05-06T06:55:31.112Z,13.33
2023-05-06T06:56:31.311Z,13.38
2023-05-06T06:57:31.469Z,13.38
2023-05-06T06:58:31.657Z,13.39
2023-05-06T06:59:31.825Z,13.44
2023-05-06T07:00:32.045Z,13.42
2023-05-06T07:01:32.209Z,13.46
2023-05-06T07:02:32.419Z,13.47
2023-05-06T07:03:32.561Z,13.46
2023-05-06T07:04:32.734Z,13.46
2023-05-06T07:05:32.889Z,13.46
2023-05-06T07:06:33.161Z,13.46
2023-05-06T07:07:33.308Z,13.50
2023-05-06T07:08:33.445Z,13.60
2023-05-06T07:09:35.091Z,13.62
2023-05-06T07:10:33.772Z,13.65
2023-05-06T07:11:33.949Z,13.70
2023-05-06T07:12:34.188Z,13.75
2023-05-06T07:13:34.316Z,13.78
2023-05-06T07:14:34.486Z,13.78
2023-05-06T07:15:34.706Z,13.81
2023-05-06T07:16:34.897Z,13.83
2023-05-06T07:17:35.100Z,13.87
2023-05-06T07:18:35.191Z,13.86
2023-05-06T07:19:35.363Z,13.89
2023-05-06T07:20:35.537Z,13.92
2023-05-06T07:21:35.728Z,13.96
2023-05-06T07:22:35.921Z,13.96
2023-05-06T07:23:36.082Z,14.00
2023-05-06T07:24:36.275Z,14.07
2023-05-06T07:25:36.438Z,14.07
2023-05-06T07:26:36.610Z,14.08
2023-05-06T07:27:36.782Z,14.08
2023-05-06T07:28:36.923Z,14.07
2023-05-06T07:29:37.093Z,14.00
2023-05-06T07:30:37.279Z,13.93
2023-05-06T07:31:37.475Z,13.87
2023-05-06T07:32:37.688Z,13.85
2023-05-06T07:33:37.782Z,13.83
2023-05-06T07:34:37.959Z,13.83
2023-05-06T07:35:38.111Z,13.83
2023-05-06T07:36:40.000Z,13.83
2023-05-06T07:37:38.527Z,13.83
2023-05-06T07:38:38.651Z,13.85
2023-05-06T07:39:38.827Z,13.85
2023-05-06T07:40:39.007Z,13.83
2023-05-06T07:41:39.186Z,13.81
2023-05-06T07:42:41.477Z,13.78
2023-05-06T07:43:39.552Z,13.72
2023-05-06T07:44:39.730Z,13.71
2023-05-06T07:45:39.881Z,13.65
2023-05-06T07:46:40.186Z,13.62
2023-05-06T07:47:40.393Z,13.59
2023-05-06T07:48:40.385Z,13.59
2023-05-06T07:49:40.576Z,13.56
2023-05-06T07:50:40.722Z,13.53
2023-05-06T07:51:40.871Z,13.54
2023-05-06T07:52:41.052Z,13.53
2023-05-06T07:53:41.272Z,13.54
2023-05-06T07:54:41.422Z,13.52
2023-05-06T07:55:41.581Z,13.52
2023-05-06T07:56:41.776Z,13.52
2023-05-06T07:57:41.940Z,13.46
2023-05-06T07:58:42.128Z,13.44
2023-05-06T07:59:42.284Z,13.39
2023-05-06T08:00:42.500Z,13.37
2023-05-06T08:01:42.637Z,13.35
2023-05-06T08:02:42.928Z,13.31
2023-05-06T08:03:43.230Z,13.28
2023-05-06T08:04:43.277Z,13.25
2023-05-06T08:05:43.361Z,13.27
2023-05-06T08:06:43.587Z,13.28
2023-05-06T08:07:43.759Z,13.28
2023-05-06T08:08:43.903Z,13.23
2023-05-06T08:09:44.073Z,13.25
2023-05-06T08:10:44.229Z,13.27
2023-05-06T08:11:44.428Z,13.30
2023-05-06T08:12:44.618Z,13.30
2023-05-06T08:13:44.736Z,13.30
2023-05-06T08:14:45.011Z,13.30
2023-05-06T08:15:45.312Z,13.23
2023-05-06T08:16:45.448Z,13.25
2023-05-06T08:17:45.455Z,13.22
2023-05-06T08:18:45.640Z,13.19
2023-05-06T08:19:45.803Z,13.20
2023-05-06T08:20:45.995Z,13.22
2023-05-06T08:21:46.160Z,13.16
2023-05-06T08:22:46.342Z,13.19
2023-05-06T08:23:46.491Z,13.18
2023-05-06T08:24:46.676Z,13.23
2023-05-06T08:25:46.849Z,13.25
2023-05-06T08:26:47.060Z,13.25
2023-05-06T08:27:47.230Z,13.25
2023-05-06T08:28:47.418Z,13.23
2023-05-06T08:29:47.594Z,13.28
2023-05-06T08:30:47.829Z,13.33
2023-05-06T08:31:48.057Z,13.35
2023-05-06T08:32:48.198Z,13.33
2023-05-06T08:33:48.283Z,13.39
2023-05-06T08:34:48.466Z,13.42
2023-05-06T08:35:48.648Z,13.46
2023-05-06T08:36:48.842Z,13.47
2023-05-06T08:37:48.992Z,13.49
2023-05-06T08:38:49.185Z,13.50
2023-05-06T08:39:49.333Z,13.52
2023-05-06T08:40:49.525Z,13.53
2023-05-06T08:41:49.670Z,13.52
2023-05-06T08:42:49.881Z,13.54
2023-05-06T08:43:50.040Z,13.54
2023-05-06T08:44:50.255Z,13.57
2023-05-06T08:45:50.423Z,13.57
2023-05-06T08:46:50.554Z,13.62
2023-05-06T08:47:50.784Z,13.62
2023-05-06T08:48:50.909Z,13.65
2023-05-06T08:49:51.069Z,13.63
2023-05-06T08:50:51.254Z,13.68
2023-05-06T08:51:51.385Z,13.70
2023-05-06T08:52:51.580Z,13.71
2023-05-06T08:53:51.747Z,13.74
2023-05-06T08:54:51.946Z,13.74
2023-05-06T08:55:52.109Z,13.77
2023-05-06T08:56:52.282Z,13.78
2023-05-06T08:57:52.422Z,13.77
2023-05-06T08:58:52.602Z,13.79
2023-05-06T08:59:52.773Z,13.79
2023-05-06T09:00:52.974Z,13.79
2023-05-06T09:01:53.085Z,13.79
2023-05-06T09:02:53.430Z,13.78
2023-05-06T09:03:53.457Z,13.78
2023-05-06T09:04:53.614Z,13.72
2023-05-06T09:05:53.773Z,13.71
2023-05-06T09:06:53.975Z,13.72
2023-05-06T09:07:54.123Z,13.71
2023-05-06T09:08:54.336Z,13.70
2023-05-06T09:09:54.478Z,13.68
2023-05-06T09:10:54.650Z,13.63
2023-05-06T09:11:54.807Z,13.65
2023-05-06T09:12:55.025Z,13.67
2023-05-06T09:13:55.152Z,13.63
2023-05-06T09:14:55.297Z,13.65
2023-05-06T09:15:55.480Z,13.63
2023-05-06T09:16:55.692Z,13.63
2023-05-06T09:17:55.905Z,13.67
2023-05-06T09:18:56.048Z,13.71
2023-05-06T09:19:56.211Z,13.68
2023-05-06T09:20:57.064Z,13.68
2023-05-06T09:21:56.530Z,13.65
2023-05-06T09:22:56.732Z,13.70
2023-05-06T09:23:56.886Z,13.68
2023-05-06T09:24:57.183Z,13.74
2023-05-06T09:25:57.222Z,13.79
2023-05-06T09:26:57.401Z,13.92
2023-05-06T09:27:57.596Z,13.95
2023-05-06T09:28:57.759Z,14.00
2023-05-06T09:29:57.933Z,14.05
2023-05-06T09:30:58.202Z,14.08
2023-05-06T09:31:58.303Z,14.11
2023-05-06T09:32:58.509Z,14.14
2023-05-06T09:33:58.628Z,14.12
2023-05-06T09:34:58.854Z,14.12
2023-05-06T09:35:58.995Z,14.08
2023-05-06T09:36:59.188Z,14.07
2023-05-06T09:37:59.350Z,14.04
2023-05-06T09:38:59.540Z,14.03
2023-05-06T09:39:59.750Z,13.99
2023-05-06T09:40:59.907Z,13.93
2023-05-06T09:42:00.113Z,13.93
2023-05-06T09:43:00.280Z,13.92
2023-05-06T09:44:00.505Z,13.96
2023-05-06T09:45:01.561Z,14.04
2023-05-06T09:46:00.894Z,14.03
2023-05-06T09:47:00.969Z,14.07
2023-05-06T09:48:01.292Z,14.07
2023-05-06T09:49:01.328Z,14.07
2023-05-06T09:50:01.500Z,14.08
2023-05-06T09:51:01.700Z,14.08
2023-05-06T09:52:01.836Z,14.11
2023-05-06T09:53:02.037Z,14.12
2023-05-06T09:54:02.190Z,14.12
2023-05-06T09:55:02.436Z,14.12
2023-05-06T09:56:02.531Z,14.12
2023-05-06T09:57:02.713Z,14.14
2023-05-06T09:58:02.875Z,14.15
2023-05-06T09:59:03.069Z,14.18
2023-05-06T10:00:03.257Z,14.15
2023-05-06T10:01:03.459Z,14.17
2023-05-06T10:02:03.690Z,14.14
2023-05-06T10:03:03.921Z,14.14
2023-05-06T10:04:04.169Z,14.17
2023-05-06T10:05:04.493Z,14.18
2023-05-06T10:06:04.314Z,14.20
2023-05-06T10:07:04.496Z,14.22
2023-05-06T10:08:04.668Z,14.23
2023-05-06T10:09:04.863Z,14.26
2023-05-06T10:10:05.025Z,14.25
2023-05-06T10:11:05.230Z,14.25
2023-05-06T10:12:05.389Z,14.25
2023-05-06T10:13:05.564Z,14.25
2023-05-06T10:14:05.733Z,14.25
2023-05-06T10:15:05.912Z,14.25
2023-05-06T10:16:06.138Z,14.25
2023-05-06T10:17:06.247Z,14.29
2023-05-06T10:18:06.469Z,14.26
2023-05-06T10:19:06.755Z,14.23
2023-05-06T10:20:06.782Z,14.23
2023-05-06T10:21:06.937Z,14.23
2023-05-06T10:22:07.109Z,14.17
2023-05-06T10:23:07.298Z,14.17
2023-05-06T10:24:07.581Z,14.11
2023-05-06T10:25:07.768Z,14.11
2023-05-06T10:26:07.856Z,14.12
2023-05-06T10:27:07.995Z,14.07
2023-05-06T10:28:09.647Z,13.99
2023-05-06T10:29:09.382Z,13.97
2023-05-06T10:30:08.561Z,14.03
2023-05-06T10:31:08.704Z,14.00
2023-05-06T10:32:09.022Z,14.04
2023-05-06T10:33:09.108Z,14.08
2023-05-06T10:34:09.293Z,14.14
2023-05-06T10:35:09.653Z,14.15
2023-05-06T10:36:09.586Z,14.22
2023-05-06T10:37:09.781Z,14.26
2023-05-06T10:38:09.937Z,14.32
2023-05-06T10:39:10.121Z,14.29
2023-05-06T10:40:10.299Z,14.32
2023-05-06T10:41:10.450Z,14.32
2023-05-06T10:42:10.637Z,14.35
2023-05-06T10:43:10.809Z,14.35
2023-05-06T10:44:11.027Z,14.37
2023-05-06T10:45:11.417Z,14.35
2023-05-06T10:46:11.426Z,14.33
2023-05-06T10:47:11.534Z,14.30
2023-05-06T10:48:11.694Z,14.30
2023-05-06T10:49:11.870Z,14.30
2023-05-06T10:50:12.034Z,14.30
2023-05-06T10:51:12.195Z,14.32
2023-05-06T10:52:12.364Z,14.37
2023-05-06T10:53:12.509Z,14.45
2023-05-06T10:54:12.682Z,14.51
2023-05-06T10:55:13.074Z,14.54
2023-05-06T10:56:13.048Z,14.55
2023-05-06T10:57:13.185Z,14.55
2023-05-06T10:58:13.372Z,14.59
2023-05-06T10:59:13.540Z,14.62
2023-05-06T11:00:13.709Z,14.68
2023-05-06T11:01:13.896Z,14.65
2023-05-06T11:02:14.073Z,14.69
2023-05-06T11:03:14.315Z,14.72
2023-05-06T11:04:14.420Z,14.73
2023-05-06T11:05:14.627Z,14.73
2023-05-06T11:06:14.802Z,14.73
2023-05-06T11:07:14.967Z,14.73
2023-05-06T11:08:15.143Z,14.72
2023-05-06T11:09:15.332Z,14.72
2023-05-06T11:10:15.536Z,14.69
2023-05-06T11:11:15.654Z,14.63
2023-05-06T11:12:15.851Z,14.60
2023-05-06T11:13:16.084Z,14.60
2023-05-06T11:14:16.222Z,14.55
2023-05-06T11:15:16.391Z,14.55
2023-05-06T11:16:16.585Z,14.59
2023-05-06T11:17:16.729Z,14.59
2023-05-06T11:18:16.914Z,14.55
2023-05-06T11:19:17.112Z,14.53
2023-05-06T11:20:17.259Z,14.53
2023-05-06T11:21:17.438Z,14.54
2023-05-06T11:22:17.643Z,14.53
2023-05-06T11:23:17.800Z,14.45
2023-05-06T11:24:18.039Z,14.40
2023-05-06T11:25:18.142Z,14.40
2023-05-06T11:26:18.335Z,14.41
2023-05-06T11:27:18.488Z,14.43
2023-05-06T11:28:18.686Z,14.41
2023-05-06T11:29:18.820Z,14.40
2023-05-06T11:30:19.013Z,14.35
2023-05-06T11:31:19.279Z,14.35
2023-05-06T11:32:19.368Z,14.36
2023-05-06T11:33:19.607Z,14.32
2023-05-06T11:34:19.726Z,14.32
2023-05-06T11:35:19.872Z,14.32
2023-05-06T11:36:20.065Z,14.32
2023-05-06T11:37:20.222Z,14.33
2023-05-06T11:38:20.420Z,14.33
2023-05-06T11:39:20.608Z,14.36
2023-05-06T11:40:20.765Z,14.40
2023-05-06T11:41:21.073Z,14.37
2023-05-06T11:42:21.096Z,14.36
2023-05-06T11:43:21.274Z,14.35
2023-05-06T11:44:21.415Z,14.33
2023-05-06T11:45:21.598Z,14.32
2023-05-06T11:46:21.877Z,14.30
2023-05-06T11:47:21.993Z,14.26
2023-05-06T11:48:22.100Z,14.25
2023-05-06T11:49:22.339Z,14.23
2023-05-06T11:50:22.478Z,14.25
2023-05-06T11:51:22.655Z,14.23
2023-05-06T11:52:22.834Z,14.25
2023-05-06T11:53:23.020Z,14.28
2023-05-06T11:54:23.162Z,14.30
2023-05-06T11:55:23.331Z,14.30
2023-05-06T11:56:23.520Z,14.33
2023-05-06T11:57:23.671Z,14.36
2023-05-06T11:58:23.821Z,14.33
2023-05-06T11:59:23.980Z,14.29
2023-05-06T12:00:24.164Z,14.32
2023-05-06T12:01:24.355Z,14.32
2023-05-06T12:02:24.575Z,14.32
2023-05-06T12:03:24.895Z,14.32
2023-05-06T12:04:24.904Z,14.33
2023-05-06T12:05:25.034Z,14.33
2023-05-06T12:06:25.242Z,14.35
2023-05-06T12:07:25.388Z,14.36
2023-05-06T12:08:27.931Z,14.36
2023-05-06T12:09:25.767Z,14.35
2023-05-06T12:10:25.911Z,14.32
2023-05-06T12:11:26.095Z,14.30
2023-05-06T12:12:26.273Z,14.29
2023-05-06T12:13:26.466Z,14.29
2023-05-06T12:14:26.658Z,14.29
2023-05-06T12:15:26.848Z,14.26
2023-05-06T12:16:27.075Z,14.25
2023-05-06T12:17:27.241Z,14.28
2023-05-06T12:18:27.380Z,14.30
2023-05-06T12:19:27.571Z,14.35
2023-05-06T12:20:27.738Z,14.36
2023-05-06T12:21:27.964Z,14.40
2023-05-06T12:22:28.077Z,14.43
2023-05-06T12:23:28.292Z,14.36
2023-05-06T12:24:28.446Z,14.37
2023-05-06T12:25:28.634Z,14.36
2023-05-06T12:26:28.778Z,14.37
2023-05-06T12:27:28.965Z,14.41
2023-05-06T12:28:29.121Z,14.43
2023-05-06T12:29:29.309Z,14.43
2023-05-06T12:30:29.521Z,14.44
2023-05-06T12:31:29.660Z,14.45
2023-05-06T12:32:29.932Z,14.44
2023-05-06T12:33:30.050Z,14.41
2023-05-06T12:34:30.250Z,14.35
2023-05-06T12:35:30.381Z,14.33
2023-05-06T12:36:30.572Z,14.30
2023-05-06T12:37:30.731Z,14.28
2023-05-06T12:38:30.926Z,14.23
2023-05-06T12:39:31.073Z,14.22
2023-05-06T12:40:31.258Z,14.18
2023-05-06T12:41:31.435Z,14.15
2023-05-06T12:42:31.629Z,14.11
2023-05-06T12:43:31.798Z,14.07
2023-05-06T12:44:31.950Z,14.00
2023-05-06T12:45:32.138Z,13.99
2023-05-06T12:46:32.296Z,13.97
2023-05-06T12:47:32.453Z,13.95
2023-05-06T12:48:32.610Z,13.95
2023-05-06T12:49:32.766Z,13.92
2023-05-06T12:50:32.933Z,13.89
2023-05-06T12:51:33.126Z,13.89
2023-05-06T12:52:33.317Z,13.83
2023-05-06T12:53:33.478Z,13.83
2023-05-06T12:54:33.663Z,13.85